Time;durP1;ratioP1;P1;durP2;ratioP2;P2;SDS_P1;SDS_P2;PMS_P1;PMS_P2;Temp;Humidity;BMP_temperature;BMP_pressure;BME280_temperature;BME280_humidity;BME280_pressure;Samples;Min_cycle;Max_cycle;Signal;HPM_P1;HPM_P2
2021/01/09 00:00:21;;;;;;;244.72;132.30;;;;;;;-1.39;76.21;100344.16;125048;1131;22460;-78
2021/01/09 00:03:02;;;;;;;235.93;133.60;;;;;;;-1.30;76.12;100344.44;125357;1130;22445;-78
2021/01/09 00:05:35;;;;;;;237.70;130.93;;;;;;;-1.25;76.19;100347.58;125355;1130;22440;-77
2021/01/09 00:08:04;;;;;;;236.18;132.52;;;;;;;-1.24;75.93;100346.64;125369;1127;22491;-77
2021/01/09 00:10:33;;;;;;;233.45;128.40;;;;;;;-1.20;75.83;100336.91;125438;1127;22544;-77
2021/01/09 00:13:01;;;;;;;233.13;125.15;;;;;;;-1.16;75.99;100348.80;125366;1130;22448;-77
2021/01/09 00:15:30;;;;;;;269.62;154.78;;;;;;;-1.12;75.89;100345.08;125434;1127;24326;-76
2021/01/09 00:17:58;;;;;;;231.53;128.20;;;;;;;-1.07;76.49;100355.98;125043;1127;22489;-76
2021/01/09 00:20:26;;;;;;;226.00;124.00;;;;;;;-1.04;75.88;100348.02;125392;1129;23977;-76
2021/01/09 00:22:54;;;;;;;222.33;129.97;;;;;;;-1.00;76.20;100348.67;125357;1130;23103;-76
2021/01/09 00:25:23;;;;;;;242.13;135.37;;;;;;;-0.96;75.76;100351.00;125397;1127;22567;-77
2021/01/09 00:27:51;;;;;;;228.52;131.10;;;;;;;-0.91;76.22;100342.92;125415;1127;24642;-78
2021/01/09 00:30:20;;;;;;;233.07;131.55;;;;;;;-0.86;75.88;100350.44;125322;1127;23007;-77
2021/01/09 00:32:48;;;;;;;247.07;133.55;;;;;;;-0.82;75.92;100354.50;125434;1129;22456;-79
2021/01/09 00:35:17;;;;;;;264.60;144.72;;;;;;;-0.78;75.58;100354.20;125363;1130;22448;-77
2021/01/09 00:37:45;;;;;;;230.77;131.50;;;;;;;-0.74;75.77;100358.27;125391;1127;22478;-77
2021/01/09 00:40:13;;;;;;;223.95;129.50;;;;;;;-0.69;75.82;100362.36;125356;1127;22528;-77
2021/01/09 00:42:44;;;;;;;225.20;130.22;;;;;;;-0.66;75.54;100365.59;125355;1130;23226;-77
2021/01/09 00:45:12;;;;;;;240.18;133.72;;;;;;;-0.61;75.75;100366.13;125135;1127;22444;-76
2021/01/09 00:47:41;;;;;;;225.20;135.82;;;;;;;-0.57;75.53;100366.77;125357;1127;22463;-75
2021/01/09 00:50:11;;;;;;;227.30;133.50;;;;;;;-0.54;75.46;100371.77;124998;1130;22454;-76
2021/01/09 00:52:40;;;;;;;238.35;133.00;;;;;;;-0.52;75.63;100373.34;125407;1127;22459;-76
2021/01/09 00:55:08;;;;;;;226.67;133.57;;;;;;;-0.48;75.69;100368.79;125348;1127;22443;-76
2021/01/09 00:57:37;;;;;;;239.55;137.92;;;;;;;-0.45;75.64;100376.38;125134;1129;22467;-76
2021/01/09 01:00:09;;;;;;;227.00;134.80;;;;;;;-0.44;75.95;100367.66;125368;1129;22449;-76
2021/01/09 01:02:38;;;;;;;246.60;137.55;;;;;;;-0.42;75.46;100372.77;125358;1127;22441;-77
2021/01/09 01:05:07;;;;;;;233.70;134.10;;;;;;;-0.39;75.63;100367.39;125064;1131;22535;-76
2021/01/09 01:07:36;;;;;;;229.97;130.18;;;;;;;-0.32;76.22;100371.25;125410;1128;22444;-76
2021/01/09 01:10:06;;;;;;;215.82;121.82;;;;;;;-0.27;75.63;100370.04;125380;1131;22457;-79
2021/01/09 01:12:35;;;;;;;218.12;124.05;;;;;;;-0.17;76.11;100379.81;125059;1127;23304;-78
2021/01/09 01:15:04;;;;;;;205.25;122.90;;;;;;;-0.14;76.22;100372.66;125349;1129;22446;-79
2021/01/09 01:17:33;;;;;;;171.40;110.97;;;;;;;-0.11;76.04;100369.87;125450;1127;22465;-78
2021/01/09 01:20:04;;;;;;;182.97;108.67;;;;;;;-0.06;75.72;100379.97;125415;1127;23459;-77
2021/01/09 01:22:32;;;;;;;185.03;109.52;;;;;;;-0.01;75.94;100375.30;125443;1127;22460;-78
2021/01/09 01:25:00;;;;;;;176.93;107.12;;;;;;;0.03;76.36;100376.76;125395;1127;25012;-80
2021/01/09 01:27:28;;;;;;;169.57;107.75;;;;;;;0.07;76.05;100378.25;125367;1130;22449;-78
2021/01/09 01:29:57;;;;;;;162.57;106.63;;;;;;;0.09;75.90;100373.77;125050;1127;22439;-78
2021/01/09 01:32:26;;;;;;;153.20;93.37;;;;;;;0.11;75.95;100373.69;125386;1127;22459;-79
2021/01/09 01:34:54;;;;;;;145.47;88.05;;;;;;;0.15;76.16;100373.37;125372;1127;22475;-79
2021/01/09 01:37:22;;;;;;;159.37;98.35;;;;;;;0.22;76.41;100369.43;125387;1129;22444;-78
2021/01/09 01:39:51;;;;;;;130.32;83.20;;;;;;;0.27;76.49;100369.15;125373;1129;22464;-78
2021/01/09 01:42:20;;;;;;;128.42;80.85;;;;;;;0.32;76.29;100372.26;125371;1128;22464;-78
2021/01/09 01:44:48;;;;;;;128.42;79.03;;;;;;;0.36;76.00;100373.71;125394;1127;22513;-76
2021/01/09 01:47:19;;;;;;;125.02;78.35;;;;;;;0.43;76.64;100376.73;125393;1129;22451;-79
2021/01/09 01:49:49;;;;;;;115.52;71.85;;;;;;;0.50;77.00;100374.56;125434;1128;23224;-79
2021/01/09 01:52:18;;;;;;;108.50;70.30;;;;;;;0.58;76.74;100380.09;125074;1127;22439;-79
2021/01/09 01:54:48;;;;;;;108.37;70.08;;;;;;;0.63;76.38;100375.41;125395;1128;22453;-78
2021/01/09 01:57:16;;;;;;;106.43;68.25;;;;;;;0.68;76.86;100379.36;125109;1127;22702;-79
2021/01/09 01:59:44;;;;;;;109.30;68.50;;;;;;;0.68;75.91;100378.54;125395;1127;22544;-79
2021/01/09 02:02:14;;;;;;;108.70;70.08;;;;;;;0.69;76.43;100382.79;125391;1129;23235;-80
2021/01/09 02:04:51;;;;;;;109.65;71.95;;;;;;;0.70;77.18;100379.28;125483;1127;22451;-79
2021/01/09 02:07:23;;;;;;;101.78;66.92;;;;;;;0.75;76.20;100390.18;125093;1130;22442;-79
2021/01/09 02:09:56;;;;;;;103.22;67.20;;;;;;;0.80;76.57;100376.86;125383;1127;22443;-78
2021/01/09 02:12:44;;;;;;;92.70;61.85;;;;;;;0.84;76.47;100386.97;125086;1129;22529;-79
2021/01/09 02:15:14;;;;;;;94.28;64.27;;;;;;;0.86;77.20;100385.08;125418;1127;22810;-79
2021/01/09 02:17:44;;;;;;;85.92;62.43;;;;;;;0.87;76.25;100384.16;125406;1130;22433;-79
2021/01/09 02:20:13;;;;;;;88.05;62.20;;;;;;;0.87;76.24;100383.33;125408;1127;22430;-79
2021/01/09 02:22:44;;;;;;;88.57;59.90;;;;;;;0.91;76.73;100392.58;125120;1127;23377;-79
2021/01/09 02:25:13;;;;;;;89.17;61.42;;;;;;;0.98;77.32;100390.39;125053;1129;22430;-79
2021/01/09 02:27:44;;;;;;;88.47;60.60;;;;;;;1.03;77.04;100390.89;125476;1127;22439;-79
2021/01/09 02:30:16;;;;;;;86.53;61.13;;;;;;;1.06;76.65;100391.51;125452;1127;22454;-79
2021/01/09 02:33:06;;;;;;;89.00;60.20;;;;;;;1.08;76.82;100394.84;125126;1129;22451;-79
2021/01/09 02:35:39;;;;;;;78.15;58.15;;;;;;;1.06;77.31;100390.68;125384;1127;24243;-79
2021/01/09 02:38:07;;;;;;;93.35;63.50;;;;;;;1.07;76.85;100385.39;125456;1127;22436;-79
2021/01/09 02:40:40;;;;;;;80.03;57.58;;;;;;;1.09;76.68;100393.91;125368;1130;22447;-79
2021/01/09 02:43:13;;;;;;;86.80;60.73;;;;;;;1.11;77.34;100386.84;125096;1129;22463;-80
2021/01/09 02:45:41;;;;;;;86.82;62.83;;;;;;;1.14;77.35;100385.80;125405;1127;24585;-80
2021/01/09 02:48:10;;;;;;;81.40;60.90;;;;;;;1.14;77.00;100381.42;125034;1129;22430;-80
2021/01/09 02:50:38;;;;;;;89.97;63.73;;;;;;;1.16;77.14;100379.52;125025;1127;22460;-78
2021/01/09 02:53:06;;;;;;;81.20;59.83;;;;;;;1.16;76.32;100384.73;125371;1127;24629;-77
2021/01/09 02:55:34;;;;;;;93.72;65.97;;;;;;;1.17;77.22;100381.21;125355;1130;22451;-76
2021/01/09 02:58:03;;;;;;;92.57;60.52;;;;;;;1.18;77.11;100382.03;125385;1127;22457;-78
2021/01/09 03:00:31;;;;;;;94.15;58.95;;;;;;;1.20;76.65;100384.52;125361;1127;24582;-78
2021/01/09 03:02:59;;;;;;;93.97;61.40;;;;;;;1.24;76.77;100383.39;125422;1130;22451;-78
2021/01/09 03:05:28;;;;;;;88.55;61.10;;;;;;;1.24;76.49;100385.99;125427;1127;22445;-78
2021/01/09 03:07:56;;;;;;;84.30;59.98;;;;;;;1.23;77.10;100381.70;125394;1127;22459;-78
2021/01/09 03:10:24;;;;;;;94.77;61.77;;;;;;;1.23;76.48;100382.53;125396;1130;22443;-78
2021/01/09 03:12:52;;;;;;;97.10;62.67;;;;;;;1.24;76.56;100386.81;125435;1127;22445;-78
2021/01/09 03:15:20;;;;;;;96.83;63.07;;;;;;;1.25;76.94;100382.44;125237;1130;23239;-78
2021/01/09 03:17:49;;;;;;;98.58;63.75;;;;;;;1.25;76.63;100385.87;125394;1127;24630;-78
2021/01/09 03:20:18;;;;;;;94.90;64.25;;;;;;;1.26;76.62;100384.92;125090;1127;22441;-76
2021/01/09 03:22:46;;;;;;;92.17;63.15;;;;;;;1.25;76.78;100387.64;125388;1127;24579;-76
2021/01/09 03:25:14;;;;;;;90.47;62.78;;;;;;;1.23;76.83;100386.91;125412;1130;22437;-76
2021/01/09 03:27:42;;;;;;;92.42;62.58;;;;;;;1.23;77.03;100394.72;125011;1130;22470;-77
2021/01/09 03:30:11;;;;;;;90.77;63.98;;;;;;;1.23;76.34;100384.30;125433;1127;22450;-77
2021/01/09 03:32:40;;;;;;;101.45;64.32;;;;;;;1.28;77.20;100384.83;125363;1127;22453;-76
2021/01/09 03:35:08;;;;;;;90.53;63.50;;;;;;;1.30;76.58;100389.00;125366;1128;22443;-78
2021/01/09 03:37:37;;;;;;;93.17;61.65;;;;;;;1.32;77.25;100388.88;125051;1129;22436;-77
2021/01/09 03:40:06;;;;;;;88.33;61.10;;;;;;;1.31;77.28;100390.66;125053;1127;24243;-78
2021/01/09 03:42:34;;;;;;;88.90;62.45;;;;;;;1.30;76.57;100394.20;125481;1127;24256;-80
2021/01/09 03:45:04;;;;;;;98.22;65.60;;;;;;;1.29;76.70;100389.91;125390;1131;22484;-78
2021/01/09 03:47:32;;;;;;;93.90;61.77;;;;;;;1.32;77.26;100391.48;125440;1129;22908;-78
2021/01/09 03:50:02;;;;;;;88.87;60.73;;;;;;;1.34;77.01;100387.01;125362;1129;22511;-77
2021/01/09 03:52:31;;;;;;;84.15;58.85;;;;;;;1.35;76.81;100388.66;125422;1128;22479;-79
2021/01/09 03:54:59;;;;;;;81.25;58.30;;;;;;;1.33;77.44;100390.53;125028;1130;22449;-79
2021/01/09 03:57:27;;;;;;;83.47;58.90;;;;;;;1.31;77.12;100392.42;124989;1127;22441;-79
2021/01/09 03:59:56;;;;;;;83.60;60.12;;;;;;;1.29;76.93;100395.12;125411;1127;22485;-79
2021/01/09 04:02:24;;;;;;;87.75;60.52;;;;;;;1.30;77.35;100390.74;125011;1130;22435;-79
2021/01/09 04:04:52;;;;;;;79.10;57.35;;;;;;;1.33;77.13;100398.34;125340;1130;22442;-80
2021/01/09 04:07:20;;;;;;;82.40;59.15;;;;;;;1.36;77.07;100392.92;125372;1127;22446;-80
2021/01/09 04:09:48;;;;;;;82.47;58.58;;;;;;;1.38;77.34;100393.66;125323;1129;22450;-78
2021/01/09 04:12:16;;;;;;;82.75;59.90;;;;;;;1.37;76.77;100398.03;125423;1127;24572;-77
2021/01/09 04:14:44;;;;;;;87.47;60.43;;;;;;;1.36;77.10;100396.34;125395;1127;22845;-77
2021/01/09 04:17:12;;;;;;;81.92;57.08;;;;;;;1.36;76.65;100405.94;125427;1131;22437;-78
2021/01/09 04:19:41;;;;;;;84.77;62.60;;;;;;;1.33;77.14;100401.80;125392;1127;22463;-78
2021/01/09 04:22:09;;;;;;;78.85;59.77;;;;;;;1.34;77.07;100407.83;125421;1127;24300;-78
2021/01/09 04:24:38;;;;;;;83.87;60.63;;;;;;;1.37;77.09;100410.22;125392;1127;24306;-79
2021/01/09 04:27:06;;;;;;;76.40;58.08;;;;;;;1.39;77.10;100403.95;125396;1127;22441;-78
2021/01/09 04:29:34;;;;;;;75.70;55.92;;;;;;;1.41;76.76;100416.87;125197;1129;22463;-79
2021/01/09 04:32:03;;;;;;;77.72;55.75;;;;;;;1.42;76.80;100413.31;125348;1127;22474;-80
2021/01/09 04:34:31;;;;;;;74.20;53.65;;;;;;;1.39;76.62;100416.13;125385;1127;25809;-79
2021/01/09 04:36:59;;;;;;;79.10;56.05;;;;;;;1.37;77.07;100424.06;125364;1128;22744;-78
2021/01/09 04:39:28;;;;;;;82.90;58.87;;;;;;;1.34;77.31;100418.24;125306;1130;22454;-79
2021/01/09 04:41:56;;;;;;;79.05;56.05;;;;;;;1.33;76.45;100420.02;125103;1129;22459;-79
2021/01/09 04:44:25;;;;;;;77.17;55.78;;;;;;;1.36;76.97;100421.55;125406;1128;22558;-79
2021/01/09 04:46:57;;;;;;;74.30;56.13;;;;;;;1.38;76.65;100422.29;125382;1127;22469;-78
2021/01/09 04:49:28;;;;;;;74.62;54.35;;;;;;;1.40;76.52;100423.85;125331;1128;22443;-79
2021/01/09 04:51:57;;;;;;;69.10;51.15;;;;;;;1.40;76.73;100423.85;125436;1127;22542;-79
2021/01/09 04:54:26;;;;;;;74.07;54.40;;;;;;;1.40;76.50;100429.06;125343;1127;22437;-78
2021/01/09 04:56:56;;;;;;;82.00;56.37;;;;;;;1.41;77.17;100435.92;125060;1129;22469;-78
2021/01/09 04:59:25;;;;;;;73.52;53.80;;;;;;;1.41;76.70;100430.72;125365;1128;22439;-78
2021/01/09 05:01:53;;;;;;;74.53;52.75;;;;;;;1.43;77.25;100434.97;125319;1127;22451;-78
2021/01/09 05:04:22;;;;;;;76.92;54.55;;;;;;;1.45;77.45;100438.31;125077;1130;23321;-78
2021/01/09 05:06:50;;;;;;;80.28;55.88;;;;;;;1.47;76.71;100439.05;125032;1127;22450;-78
2021/01/09 05:09:18;;;;;;;75.80;55.17;;;;;;;1.44;76.44;100445.30;125342;1127;22911;-78
2021/01/09 05:11:46;;;;;;;79.07;55.45;;;;;;;1.43;77.07;100459.23;125371;1129;22457;-78
2021/01/09 05:14:16;;;;;;;80.83;55.30;;;;;;;1.42;77.41;100452.37;125094;1127;24252;-78
2021/01/09 05:16:44;;;;;;;79.55;53.63;;;;;;;1.43;77.22;100458.40;125069;1129;22447;-78
2021/01/09 05:19:17;;;;;;;77.80;54.08;;;;;;;1.42;77.41;100457.57;125357;1131;22542;-79
2021/01/09 05:21:46;;;;;;;72.12;52.17;;;;;;;1.46;76.45;100461.63;125279;1129;22442;-78
2021/01/09 05:24:14;;;;;;;74.47;53.45;;;;;;;1.45;76.39;100465.17;125096;1131;22440;-78
2021/01/09 05:26:43;;;;;;;70.92;50.60;;;;;;;1.43;77.26;100458.40;125249;1130;22484;-78
2021/01/09 05:29:16;;;;;;;71.40;52.58;;;;;;;1.42;77.10;100465.38;125330;1127;24260;-78
2021/01/09 05:31:44;;;;;;;74.62;52.23;;;;;;;1.38;76.42;100462.16;125457;1127;22547;-77
2021/01/09 05:34:12;;;;;;;75.42;52.93;;;;;;;1.40;76.67;100465.50;125103;1129;22495;-78
2021/01/09 05:36:41;;;;;;;74.07;50.00;;;;;;;1.41;76.48;100461.95;125234;1130;22451;-78
2021/01/09 05:39:09;;;;;;;73.80;51.85;;;;;;;1.40;76.40;100462.90;125407;1127;22439;-77
2021/01/09 05:41:42;;;;;;;69.00;50.33;;;;;;;1.40;77.35;100475.91;125384;1129;23226;-77
2021/01/09 05:44:12;;;;;;;69.30;48.75;;;;;;;1.39;76.28;100474.23;125418;1127;22446;-77
2021/01/09 05:46:41;;;;;;;67.35;49.00;;;;;;;1.38;76.48;100477.78;125287;1127;22442;-77
2021/01/09 05:49:10;;;;;;;72.32;47.93;;;;;;;1.38;76.98;100480.38;125097;1131;22503;-77
2021/01/09 05:51:40;;;;;;;67.65;49.33;;;;;;;1.39;77.23;100479.44;125418;1128;22440;-78
2021/01/09 05:54:08;;;;;;;65.80;47.73;;;;;;;1.42;77.09;100488.81;125114;1127;22432;-78
2021/01/09 05:56:40;;;;;;;68.07;48.38;;;;;;;1.43;76.68;100480.05;125384;1127;24660;-78
2021/01/09 05:59:10;;;;;;;66.77;50.55;;;;;;;1.43;76.80;100494.84;125055;1131;22542;-78
2021/01/09 06:01:43;;;;;;;71.47;49.18;;;;;;;1.41;76.35;100490.59;125043;1127;22456;-78
2021/01/09 06:04:28;;;;;;;72.40;49.75;;;;;;;1.38;77.12;100490.80;125310;1127;22465;-78
2021/01/09 06:07:11;;;;;;;69.30;49.27;;;;;;;1.36;76.76;100499.64;125415;1128;22438;-78
2021/01/09 06:09:46;;;;;;;69.95;50.08;;;;;;;1.37;77.22;100501.33;125399;1130;22447;-79
2021/01/09 06:12:21;;;;;;;71.67;50.30;;;;;;;1.39;77.00;100508.06;125410;1127;22448;-79
2021/01/09 06:14:51;;;;;;;67.70;50.05;;;;;;;1.40;76.89;100501.12;125375;1127;22527;-78
2021/01/09 06:17:21;;;;;;;70.52;51.00;;;;;;;1.40;77.07;100504.55;125064;1129;22457;-78
2021/01/09 06:19:50;;;;;;;70.17;50.00;;;;;;;1.40;76.98;100508.92;125429;1127;22564;-78
2021/01/09 06:22:19;;;;;;;79.30;51.80;;;;;;;1.38;76.89;100502.98;125376;1127;22460;-79
2021/01/09 06:24:48;;;;;;;66.25;48.58;;;;;;;1.40;76.92;100506.33;125418;1127;24268;-78
2021/01/09 06:27:28;;;;;;;65.87;48.67;;;;;;;1.42;77.55;100512.23;125070;1129;22673;-79
2021/01/09 06:30:03;;;;;;;65.20;47.00;;;;;;;1.45;77.06;100517.23;125446;1127;22522;-79
2021/01/09 06:32:37;;;;;;;62.67;47.27;;;;;;;1.45;77.18;100521.62;125330;1127;22495;-79
2021/01/09 06:35:08;;;;;;;63.87;47.73;;;;;;;1.44;76.91;100517.36;125464;1127;24565;-79
2021/01/09 06:37:36;;;;;;;59.83;45.52;;;;;;;1.43;77.29;100521.70;125297;1129;22441;-78
2021/01/09 06:40:06;;;;;;;67.22;47.90;;;;;;;1.40;76.80;100520.16;125258;1129;23564;-77
2021/01/09 06:42:37;;;;;;;64.92;48.17;;;;;;;1.41;77.30;100516.62;125505;1129;22460;-77
2021/01/09 06:45:08;;;;;;;65.08;48.60;;;;;;;1.43;77.10;100528.69;125412;1128;22457;-76
2021/01/09 06:47:36;;;;;;;68.07;51.10;;;;;;;1.45;77.19;100526.82;125443;1127;22641;-77
2021/01/09 06:50:19;;;;;;;68.75;50.92;;;;;;;1.44;77.12;100533.80;125255;1129;22497;-77
2021/01/09 06:52:53;;;;;;;61.67;48.43;;;;;;;1.41;77.38;100527.03;125418;1127;22522;-77
2021/01/09 06:55:37;;;;;;;61.35;45.67;;;;;;;1.41;76.54;100534.84;125316;1127;22491;-77
2021/01/09 06:58:15;;;;;;;58.98;45.23;;;;;;;1.42;77.23;100535.67;125366;1127;24872;-77
2021/01/09 07:00:43;;;;;;;67.42;48.87;;;;;;;1.44;77.42;100544.22;125418;1127;22447;-78
2021/01/09 07:03:12;;;;;;;60.25;47.13;;;;;;;1.46;76.99;100542.33;125380;1127;22457;-77
2021/01/09 07:05:43;;;;;;;57.55;44.85;;;;;;;1.47;77.51;100543.18;125417;1129;22433;-77
2021/01/09 07:08:20;;;;;;;60.23;46.68;;;;;;;1.45;77.15;100545.87;125378;1127;24379;-77
2021/01/09 07:10:56;;;;;;;59.40;45.08;;;;;;;1.45;76.80;100551.08;125404;1127;22450;-77
2021/01/09 07:13:26;;;;;;;63.38;49.10;;;;;;;1.46;76.76;100547.53;125435;1127;22453;-77
2021/01/09 07:16:10;;;;;;;69.62;48.10;;;;;;;1.51;77.15;100557.65;125443;1128;22608;-78
2021/01/09 07:18:49;;;;;;;62.23;46.73;;;;;;;1.52;76.62;100557.53;125036;1127;22458;-78
2021/01/09 07:21:21;;;;;;;57.05;45.00;;;;;;;1.51;77.02;100562.86;125348;1127;22451;-77
2021/01/09 07:23:55;;;;;;;61.33;46.53;;;;;;;1.48;77.31;100565.66;125048;1129;22473;-77
2021/01/09 07:26:24;;;;;;;61.73;49.67;;;;;;;1.45;76.91;100565.87;125403;1128;22498;-77
2021/01/09 07:28:52;;;;;;;63.60;47.85;;;;;;;1.46;76.99;100570.13;125390;1127;22474;-78
2021/01/09 07:31:25;;;;;;;67.12;52.62;;;;;;;1.49;77.22;100572.53;125369;1130;22456;-77
2021/01/09 07:33:57;;;;;;;63.00;46.25;;;;;;;1.50;77.44;100569.84;125038;1127;22449;-77
2021/01/09 07:36:28;;;;;;;58.28;42.85;;;;;;;1.52;77.65;100567.95;125438;1127;22456;-78
2021/01/09 07:39:05;;;;;;;56.05;42.30;;;;;;;1.52;77.13;100573.16;125217;1129;22463;-78
2021/01/09 07:41:36;;;;;;;57.75;42.20;;;;;;;1.51;77.81;100583.69;125454;1127;22545;-77
2021/01/09 07:44:11;;;;;;;57.40;42.40;;;;;;;1.50;77.03;100584.60;125425;1127;24375;-78
2021/01/09 07:46:58;;;;;;;58.98;40.00;;;;;;;1.51;77.72;100596.70;125390;1127;22451;-78
2021/01/09 07:49:30;;;;;;;57.25;42.05;;;;;;;1.53;77.56;100585.22;125387;1128;22451;-80
2021/01/09 07:52:07;;;;;;;50.30;39.35;;;;;;;1.55;77.11;100592.95;125046;1127;24565;-79
2021/01/09 07:54:41;;;;;;;45.30;34.20;;;;;;;1.55;76.99;100590.34;125453;1127;22463;-80
2021/01/09 07:57:18;;;;;;;45.73;35.05;;;;;;;1.53;76.75;100594.81;125085;1130;23467;-81
2021/01/09 07:59:55;;;;;;;44.30;34.60;;;;;;;1.54;76.98;100594.72;125664;1130;22448;-80
2021/01/09 08:02:30;;;;;;;48.70;37.50;;;;;;;1.55;77.39;100596.38;125735;1130;22472;-82
2021/01/09 08:05:19;;;;;;;44.03;33.48;;;;;;;1.58;77.96;100588.36;125904;1127;22480;-82
2021/01/09 08:07:52;;;;;;;38.38;30.60;;;;;;;1.60;77.88;100593.45;125301;1127;22448;-80
2021/01/09 08:10:26;;;;;;;;;;;;;;;1.56;76.74;100599.81;125700;1127;22460;-80
2021/01/09 08:13:08;;;;;;;36.68;28.73;;;;;;;1.47;77.09;100596.08;125632;1130;22084;-80
2021/01/09 08:15:38;;;;;;;31.15;27.58;;;;;;;1.49;77.92;100606.37;125608;1127;23381;-80
2021/01/09 08:18:10;;;;;;;38.40;30.12;;;;;;;1.51;77.39;100609.72;125328;1129;22520;-80
2021/01/09 08:20:39;;;;;;;38.88;30.82;;;;;;;1.53;77.36;100607.83;125644;1127;22466;-80
2021/01/09 08:23:08;;;;;;;34.25;28.17;;;;;;;1.57;77.89;100610.14;125598;1127;22561;-81
2021/01/09 08:25:39;;;;;;;33.53;28.38;;;;;;;1.64;77.15;100607.95;125638;1127;22475;-80
2021/01/09 08:28:08;;;;;;;32.08;26.48;;;;;;;1.69;77.75;100611.06;125313;1127;22460;-80
2021/01/09 08:30:39;;;;;;;36.15;27.80;;;;;;;1.71;77.46;100616.19;125372;1129;22501;-81
2021/01/09 08:33:11;;;;;;;35.13;28.05;;;;;;;1.68;76.46;100614.62;125662;1129;22549;-80
2021/01/09 08:35:48;;;;;;;34.73;29.65;;;;;;;1.68;77.70;100611.19;125451;1127;22457;-81
2021/01/09 08:38:18;;;;;;;36.75;29.87;;;;;;;1.71;77.37;100611.80;125495;1129;23236;-80
2021/01/09 08:40:47;;;;;;;34.30;28.80;;;;;;;1.73;76.86;100619.50;125658;1127;22503;-80
2021/01/09 08:43:16;;;;;;;37.80;28.95;;;;;;;1.76;77.26;100624.50;125442;1127;24406;-82
2021/01/09 08:45:53;;;;;;;37.17;31.68;;;;;;;1.76;76.64;100627.11;125543;1129;22428;-81
2021/01/09 08:48:28;;;;;;;34.20;28.90;;;;;;;1.70;76.83;100625.77;125714;1131;22505;-84
2021/01/09 08:51:10;;;;;;;34.75;28.60;;;;;;;1.68;76.32;100624.20;125817;1127;22436;-79
2021/01/09 08:53:48;;;;;;;33.90;26.82;;;;;;;1.69;77.03;100633.67;125284;1129;22450;-77
2021/01/09 08:56:28;;;;;;;33.88;27.10;;;;;;;1.71;76.92;100637.02;125412;1127;22502;-79
2021/01/09 08:59:10;;;;;;;32.83;25.08;;;;;;;1.71;76.54;100642.23;125382;1127;22457;-77
2021/01/09 09:01:49;;;;;;;33.73;27.20;;;;;;;1.71;76.94;100647.44;125395;1127;22457;-77
2021/01/09 09:04:22;;;;;;;34.25;28.80;;;;;;;1.70;76.46;100653.56;125478;1128;22463;-76
2021/01/09 09:07:05;;;;;;;33.65;27.40;;;;;;;1.68;77.06;100651.08;125107;1130;23351;-76
2021/01/09 09:09:33;;;;;;;34.33;27.20;;;;;;;1.62;76.75;100652.31;125363;1129;22461;-77
2021/01/09 09:12:03;;;;;;;37.20;28.87;;;;;;;1.63;76.92;100653.14;125404;1128;22460;-76
2021/01/09 09:14:32;;;;;;;37.70;29.67;;;;;;;1.62;77.02;100664.50;125339;1130;22495;-76
2021/01/09 09:17:04;;;;;;;32.98;28.27;;;;;;;1.61;77.01;100662.84;125359;1127;25773;-77
2021/01/09 09:19:38;;;;;;;39.33;27.42;;;;;;;1.59;76.23;100672.52;125397;1129;22438;-77
2021/01/09 09:22:06;;;;;;;34.63;28.45;;;;;;;1.54;76.58;100659.81;125384;1127;22772;-77
2021/01/09 09:24:42;;;;;;;37.15;29.50;;;;;;;1.51;76.46;100659.19;125345;1130;22544;-77
2021/01/09 09:27:31;;;;;;;36.27;28.37;;;;;;;1.51;76.41;100662.62;125494;1127;22447;-77
2021/01/09 09:30:14;;;;;;;31.75;24.55;;;;;;;1.53;76.49;100668.55;125327;1127;22447;-77
2021/01/09 09:32:47;;;;;;;33.92;27.70;;;;;;;1.55;76.03;100663.25;125320;1130;22541;-76
2021/01/09 09:35:29;;;;;;;;;;;;;;;1.51;76.16;100664.40;125351;1127;22459;-77
2021/01/09 09:38:00;;;;;;;26.77;21.17;;;;;;;1.45;76.45;100670.00;125415;1127;21312;-77
2021/01/09 09:40:31;;;;;;;25.55;22.85;;;;;;;1.41;76.08;100665.00;125347;1130;22451;-77
2021/01/09 09:43:19;;;;;;;26.25;22.02;;;;;;;1.38;76.59;100665.20;125455;1127;22463;-76
2021/01/09 09:46:03;;;;;;;27.05;21.50;;;;;;;1.37;76.61;100667.92;125117;1127;25095;-76
2021/01/09 09:48:36;;;;;;;28.33;22.63;;;;;;;1.37;76.70;100658.33;125396;1127;22522;-76
2021/01/09 09:51:06;;;;;;;28.20;23.77;;;;;;;1.43;76.24;100662.28;125427;1127;23404;-76
2021/01/09 09:53:39;;;;;;;24.92;21.73;;;;;;;1.43;75.89;100664.88;125304;1127;22739;-75
2021/01/09 09:56:23;;;;;;;23.45;20.92;;;;;;;1.43;76.38;100677.90;125353;1129;22448;-77
2021/01/09 09:59:07;;;;;;;26.57;20.92;;;;;;;1.40;76.14;100672.92;125451;1127;24303;-77
2021/01/09 10:01:37;;;;;;;31.27;24.45;;;;;;;1.35;75.97;100675.81;125370;1128;22669;-77
2021/01/09 10:04:11;;;;;;;41.02;29.18;;;;;;;1.33;76.59;100671.63;125438;1127;22447;-77
2021/01/09 10:06:41;;;;;;;38.58;29.92;;;;;;;1.34;76.68;100668.11;125540;1127;22462;-77
2021/01/09 10:09:17;;;;;;;29.05;24.00;;;;;;;1.37;76.51;100666.14;125379;1129;22447;-77
2021/01/09 10:11:50;;;;;;;26.02;21.80;;;;;;;1.36;75.91;100664.45;125096;1127;22455;-77
2021/01/09 10:14:22;;;;;;;29.45;24.18;;;;;;;1.31;76.41;100661.33;125360;1127;22438;-77
2021/01/09 10:16:51;;;;;;;26.77;23.00;;;;;;;1.29;76.08;100668.40;125361;1128;22441;-79
2021/01/09 10:19:19;;;;;;;31.33;23.00;;;;;;;1.27;75.80;100662.48;125373;1127;22449;-77
2021/01/09 10:21:49;;;;;;;24.57;21.70;;;;;;;1.27;76.52;100670.28;125404;1127;22440;-77
2021/01/09 10:24:17;;;;;;;26.68;22.30;;;;;;;1.31;76.15;100665.71;125336;1130;22457;-78
2021/01/09 10:26:45;;;;;;;27.85;23.98;;;;;;;1.33;76.04;100669.89;125311;1127;22463;-77
2021/01/09 10:29:17;;;;;;;26.87;23.87;;;;;;;1.38;76.79;100662.59;125459;1127;22440;-79
2021/01/09 10:31:45;;;;;;;32.17;26.90;;;;;;;1.39;75.98;100666.86;125366;1127;22456;-77
2021/01/09 10:34:13;;;;;;;34.98;27.15;;;;;;;1.39;76.06;100661.66;125441;1127;24342;-77
2021/01/09 10:36:42;;;;;;;37.20;29.95;;;;;;;1.39;76.30;100671.23;125400;1128;22457;-76
2021/01/09 10:39:10;;;;;;;32.90;29.18;;;;;;;1.41;76.50;100664.17;125335;1131;22446;-76
2021/01/09 10:41:39;;;;;;;30.52;26.90;;;;;;;1.48;75.90;100660.22;125415;1129;22448;-76
2021/01/09 10:44:08;;;;;;;30.95;26.48;;;;;;;1.54;75.71;100659.81;125409;1129;22462;-77
2021/01/09 10:46:36;;;;;;;35.95;27.35;;;;;;;1.58;75.53;100669.09;125358;1130;22436;-77
2021/01/09 10:49:04;;;;;;;31.33;27.33;;;;;;;1.60;75.75;100669.83;125367;1127;22443;-77
2021/01/09 10:51:34;;;;;;;30.10;26.70;;;;;;;1.61;75.66;100668.88;125422;1127;22449;-78
2021/01/09 10:54:03;;;;;;;31.48;27.75;;;;;;;1.62;75.35;100661.90;125399;1127;22457;-78
2021/01/09 10:56:31;;;;;;;32.20;27.52;;;;;;;1.60;75.38;100664.63;125395;1127;22805;-78
2021/01/09 10:58:59;;;;;;;30.70;26.57;;;;;;;1.61;75.04;100666.28;125418;1127;22510;-77
2021/01/09 11:01:28;;;;;;;33.13;28.02;;;;;;;1.64;75.59;100675.66;125353;1131;22532;-78
2021/01/09 11:03:57;;;;;;;31.33;27.30;;;;;;;1.67;74.91;100677.20;125362;1128;22460;-77
2021/01/09 11:06:25;;;;;;;32.03;27.87;;;;;;;1.68;75.01;100674.52;125409;1127;22457;-77
2021/01/09 11:08:53;;;;;;;28.45;25.45;;;;;;;1.70;75.09;100675.26;125429;1127;24868;-76
2021/01/09 11:11:22;;;;;;;28.77;25.52;;;;;;;1.69;74.69;100677.95;125354;1127;22443;-77
2021/01/09 11:13:50;;;;;;;30.25;25.12;;;;;;;1.69;74.54;100667.53;125431;1127;22434;-77
2021/01/09 11:16:23;;;;;;;23.07;19.92;;;;;;;1.70;74.73;100670.05;125374;1130;22438;-77
2021/01/09 11:18:52;;;;;;;31.80;23.10;;;;;;;1.70;74.19;100677.00;125376;1127;22503;-78
2021/01/09 11:21:21;;;;;;;24.75;20.55;;;;;;;1.70;74.55;100680.47;125400;1127;22438;-77
2021/01/09 11:23:52;;;;;;;23.20;20.62;;;;;;;1.69;73.83;100670.97;125363;1127;24562;-76